Time;durP1;ratioP1;P1;durP2;ratioP2;P2;SDS_P1;SDS_P2;PMS_P1;PMS_P2;Temp;Humidity;BMP_temperature;BMP_pressure;BME280_temperature;BME280_humidity;BME280_pressure;Samples;Min_cycle;Max_cycle;Signal;HPM_P1;HPM_P2
2021/04/13 00:02:29;;;;;;;11.68;4.97;;;;;;;2.74;65.77;103081.84;5081327;28;20044;-74
2021/04/13 00:04:57;;;;;;;;;;;;;;;2.73;65.83;103082.75;5082964;28;20526;-74
2021/04/13 00:07:25;;;;;;;13.75;5.07;;;;;;;2.73;66.83;103091.34;5083682;28;20458;-75
2021/04/13 00:09:51;;;;;;;13.70;4.80;;;;;;;2.69;66.93;103089.72;5067350;28;20079;-75
2021/04/13 00:12:23;;;;;;;12.00;4.75;;;;;;;2.69;67.14;103081.97;5089711;28;20059;-75
2021/04/13 00:14:59;;;;;;;14.45;4.95;;;;;;;2.72;66.77;103083.63;5084693;28;20112;-75
2021/04/13 00:17:29;;;;;;;20.05;5.07;;;;;;;2.69;67.24;103087.16;5067656;28;20051;-74
2021/04/13 00:20:04;;;;;;;12.38;4.78;;;;;;;2.68;66.97;103084.59;5089485;28;20518;-75
2021/04/13 00:22:30;;;;;;;15.73;5.45;;;;;;;2.72;67.49;103094.81;5084142;28;20559;-74
2021/04/13 00:24:57;;;;;;;14.68;5.25;;;;;;;2.66;67.33;103083.78;5091363;28;20056;-74
2021/04/13 00:27:25;;;;;;;10.38;4.68;;;;;;;2.69;67.22;103096.66;5091139;28;20544;-75
2021/04/13 00:30:13;;;;;;;14.40;5.18;;;;;;;2.68;67.19;103098.38;5075400;28;20055;-74
2021/04/13 00:32:48;;;;;;;16.87;4.63;;;;;;;2.64;67.18;103095.91;5077529;28;20392;-74
2021/04/13 00:35:41;;;;;;;13.30;5.65;;;;;;;2.62;67.62;103088.19;5073563;28;20045;-74
2021/04/13 00:38:13;;;;;;;20.90;4.90;;;;;;;2.68;68.25;103094.94;5079208;28;20060;-74
2021/04/13 00:40:41;;;;;;;16.38;5.20;;;;;;;2.66;68.03;103094.97;5049313;28;20054;-75
2021/04/13 00:43:12;;;;;;;16.25;4.75;;;;;;;2.61;68.31;103103.75;5072429;28;20094;-75
2021/04/13 00:45:41;;;;;;;16.63;4.65;;;;;;;2.67;68.11;103099.28;5078815;28;20124;-76
2021/04/13 00:48:10;;;;;;;15.43;5.05;;;;;;;2.69;68.31;103094.91;5054655;28;20484;-75
2021/04/13 00:50:41;;;;;;;13.82;4.80;;;;;;;2.65;68.49;103093.31;5062386;28;20093;-74
2021/04/13 00:53:11;;;;;;;14.13;4.85;;;;;;;2.66;68.31;103096.72;5084123;28;20113;-74
2021/04/13 00:55:42;;;;;;;9.95;4.70;;;;;;;2.65;68.39;103093.31;5063082;28;20468;-74
2021/04/13 00:58:17;;;;;;;13.80;4.85;;;;;;;2.66;68.60;103102.75;5068936;28;20055;-75
2021/04/13 01:00:50;;;;;;;13.60;5.00;;;;;;;2.62;68.54;103095.94;5061508;28;20063;-75
2021/04/13 01:03:16;;;;;;;9.15;4.45;;;;;;;2.70;68.32;103098.34;5051965;28;20052;-75
2021/04/13 01:05:49;;;;;;;10.38;4.60;;;;;;;2.69;68.07;103104.44;5081116;28;20067;-75
2021/04/13 01:08:34;;;;;;;9.55;4.75;;;;;;;2.67;68.50;103101.88;5058691;28;21060;-76
2021/04/13 01:11:24;;;;;;;10.88;4.35;;;;;;;2.68;68.42;103106.16;5078223;28;20075;-75
2021/04/13 01:13:56;;;;;;;9.25;4.70;;;;;;;2.66;68.14;103113.13;5075338;28;20766;-75
2021/04/13 01:16:28;;;;;;;13.52;4.40;;;;;;;2.60;68.31;103094.31;5054205;28;20074;-75
2021/04/13 01:19:12;;;;;;;10.45;4.63;;;;;;;2.62;68.43;103098.53;5065282;28;20472;-74
2021/04/13 01:22:01;;;;;;;11.60;4.35;;;;;;;2.64;69.04;103109.72;5066754;28;20097;-75
2021/04/13 01:24:34;;;;;;;10.80;4.32;;;;;;;2.64;69.20;103106.28;5077900;28;20074;-74
2021/04/13 01:27:07;;;;;;;8.25;4.10;;;;;;;2.62;68.82;103105.47;5056987;28;20576;-75
2021/04/13 01:29:36;;;;;;;11.05;4.38;;;;;;;2.64;69.66;103096.75;5067984;28;20064;-74
2021/04/13 01:32:03;;;;;;;11.45;4.38;;;;;;;2.62;69.88;103095.09;5078936;28;20048;-75
2021/04/13 01:34:52;;;;;;;9.23;3.90;;;;;;;2.56;70.46;103101.28;5077378;28;20056;-75
2021/04/13 01:42:27;;;;;;;9.30;4.00;;;;;;;2.47;70.38;103104.09;5075496;28;20044;-74
2021/04/13 01:45:11;;;;;;;11.77;4.47;;;;;;;2.46;70.18;103099.84;5083241;28;20288;-74
2021/04/13 01:47:37;;;;;;;12.25;3.78;;;;;;;2.48;70.18;103104.06;5079072;28;20487;-75
2021/04/13 01:50:07;;;;;;;9.07;3.63;;;;;;;2.50;70.46;103107.47;5081209;28;20051;-75
2021/04/13 01:52:37;;;;;;;10.73;3.90;;;;;;;2.48;70.84;103100.63;5072966;28;20056;-75
2021/04/13 01:55:14;;;;;;;10.65;4.07;;;;;;;2.45;70.78;103104.16;5078450;28;20059;-75
2021/04/13 01:57:51;;;;;;;7.18;3.40;;;;;;;2.45;70.17;103093.81;5073223;28;20052;-75
2021/04/13 02:00:26;;;;;;;9.77;3.30;;;;;;;2.42;70.18;103100.78;5066318;28;20566;-75
2021/04/13 02:03:05;;;;;;;12.73;3.97;;;;;;;2.41;71.22;103101.66;5072775;28;20060;-74
2021/04/13 02:05:36;;;;;;;9.50;3.80;;;;;;;2.36;70.74;103104.38;5075239;28;20060;-74
2021/04/13 02:08:17;;;;;;;8.77;3.60;;;;;;;2.32;71.28;103105.34;5050912;28;20048;-74
2021/04/13 02:10:53;;;;;;;7.47;3.60;;;;;;;2.32;70.80;103106.19;5059333;28;20051;-74
2021/04/13 02:13:21;;;;;;;10.20;3.47;;;;;;;2.28;71.15;103094.19;5064707;28;20056;-75
2021/04/13 02:16:10;;;;;;;11.33;3.50;;;;;;;2.33;71.32;103096.69;5055644;28;20052;-75
2021/04/13 02:18:46;;;;;;;12.82;3.70;;;;;;;2.33;70.94;103107.91;5074886;28;20284;-75
2021/04/13 02:21:20;;;;;;;7.78;3.72;;;;;;;2.35;71.40;103106.13;5077507;28;20517;-74
2021/04/13 02:23:52;;;;;;;8.40;3.80;;;;;;;2.32;71.21;103105.34;5076203;28;20061;-74
2021/04/13 02:26:19;;;;;;;8.95;4.07;;;;;;;2.25;71.08;103104.63;5082853;28;20085;-75
2021/04/13 02:28:47;;;;;;;8.50;3.50;;;;;;;2.16;71.43;103107.44;5077813;28;20101;-74
2021/04/13 02:31:36;;;;;;;10.70;3.33;;;;;;;2.16;71.59;103104.88;5082183;28;20120;-75
2021/04/13 02:34:13;;;;;;;10.40;3.95;;;;;;;2.15;71.40;103116.09;5063368;28;20151;-73
2021/04/13 02:36:43;;;;;;;10.13;4.45;;;;;;;2.14;71.56;103111.81;5055151;28;20116;-74
2021/04/13 02:39:13;;;;;;;9.07;3.78;;;;;;;2.01;72.27;103110.38;5090438;28;20093;-73
2021/04/13 02:41:47;;;;;;;10.82;4.30;;;;;;;2.09;71.90;103113.66;5064359;28;20055;-72
2021/04/13 02:44:17;;;;;;;9.18;4.00;;;;;;;2.06;71.75;103108.53;5082128;28;20056;-74
2021/04/13 02:46:44;;;;;;;9.95;3.45;;;;;;;2.02;71.45;103109.47;5073575;28;20063;-73
2021/04/13 02:49:17;;;;;;;16.10;4.20;;;;;;;2.02;72.45;103110.34;5071607;28;20048;-72
2021/04/13 02:51:51;;;;;;;11.38;3.97;;;;;;;2.05;71.98;103112.03;5075793;28;20056;-73
2021/04/13 02:54:23;;;;;;;9.68;3.58;;;;;;;2.05;71.88;103117.19;5081958;28;20058;-72
2021/04/13 02:56:54;;;;;;;10.95;3.97;;;;;;;2.08;71.88;103120.56;5058417;28;20125;-72
2021/04/13 02:59:25;;;;;;;17.08;4.18;;;;;;;2.07;71.71;103124.03;5081910;28;20504;-72
2021/04/13 03:02:06;;;;;;;9.50;4.13;;;;;;;2.04;72.42;103124.13;5087007;28;20048;-72
2021/04/13 03:04:42;;;;;;;10.48;3.90;;;;;;;2.01;71.99;103120.75;5081500;28;20083;-74
2021/04/13 03:07:13;;;;;;;11.60;3.47;;;;;;;1.99;72.19;103123.34;5087142;28;20039;-74
2021/04/13 03:09:40;;;;;;;13.65;3.50;;;;;;;1.96;71.67;103121.69;5094329;28;20109;-73
2021/04/13 03:12:10;;;;;;;10.43;4.10;;;;;;;1.94;71.65;103125.19;5085631;28;20056;-73
2021/04/13 03:14:45;;;;;;;13.27;4.10;;;;;;;1.89;72.46;103125.28;5088853;28;20687;-72
2021/04/13 03:17:18;;;;;;;10.20;3.78;;;;;;;1.84;72.64;103121.94;5081034;28;20393;-73
2021/04/13 03:19:47;;;;;;;11.25;4.68;;;;;;;1.85;72.19;103121.06;5063199;28;20761;-73
2021/04/13 03:22:19;;;;;;;10.88;4.40;;;;;;;1.85;72.43;103125.41;5086916;28;20600;-74
2021/04/13 03:24:48;;;;;;;11.43;4.28;;;;;;;1.82;72.07;103131.47;5080983;28;20079;-74
2021/04/13 03:27:21;;;;;;;11.50;4.35;;;;;;;1.81;72.54;103128.94;5086326;28;20056;-74
2021/04/13 03:30:18;;;;;;;13.98;4.85;;;;;;;1.86;72.23;103132.28;5063971;28;20109;-74
2021/04/13 03:32:53;;;;;;;14.60;4.93;;;;;;;1.89;72.22;103129.63;5080954;28;20056;-74
2021/04/13 03:35:23;;;;;;;12.82;4.30;;;;;;;1.85;71.93;103134.00;5086064;28;20087;-74
2021/04/13 03:37:52;;;;;;;9.68;3.90;;;;;;;1.88;72.56;103139.13;5095598;28;20112;-74
2021/04/13 03:40:21;;;;;;;9.20;4.32;;;;;;;1.87;72.65;103137.44;5060147;28;20122;-74
2021/04/13 03:42:53;;;;;;;14.40;4.72;;;;;;;1.85;72.41;103136.59;5071715;28;20059;-74
2021/04/13 03:45:19;;;;;;;15.15;4.72;;;;;;;1.85;72.35;103125.41;5067132;28;20112;-73
2021/04/13 03:47:46;;;;;;;12.73;4.85;;;;;;;1.81;73.36;103132.38;5079806;28;20087;-74
2021/04/13 03:50:24;;;;;;;14.27;5.00;;;;;;;1.82;73.32;103128.06;5066622;28;20044;-73
2021/04/13 03:53:06;;;;;;;16.45;5.25;;;;;;;1.80;73.28;103132.41;5079865;28;20047;-74
2021/04/13 03:55:33;;;;;;;12.30;5.32;;;;;;;1.76;73.92;103134.19;5072626;28;20066;-73
2021/04/13 03:58:16;;;;;;;13.85;5.32;;;;;;;1.81;73.63;103124.63;5082563;28;20051;-74
2021/04/13 04:00:42;;;;;;;19.52;5.93;;;;;;;1.71;73.96;103126.56;5064858;28;20655;-74
2021/04/13 04:03:10;;;;;;;17.35;6.10;;;;;;;1.78;74.46;103133.31;5085347;28;20048;-74
2021/04/13 04:05:46;;;;;;;18.50;5.05;;;;;;;1.78;73.91;103129.84;5088803;28;20055;-73
2021/04/13 04:08:41;;;;;;;13.75;5.80;;;;;;;1.74;74.69;103139.41;5084879;28;20063;-74
2021/04/13 04:11:09;;;;;;;19.67;6.65;;;;;;;1.75;73.96;103129.94;5053812;28;20127;-73
2021/04/13 04:13:38;;;;;;;10.60;5.93;;;;;;;1.74;74.35;103138.56;5077425;28;20773;-73
2021/04/13 04:16:08;;;;;;;16.17;6.40;;;;;;;1.73;74.18;103136.88;5060874;28;20086;-74
2021/04/13 04:18:50;;;;;;;15.00;5.93;;;;;;;1.70;74.23;103132.59;5074226;28;20060;-73
2021/04/13 04:21:35;;;;;;;13.07;5.90;;;;;;;1.74;74.40;103138.56;5073544;28;20563;-73
2021/04/13 04:24:18;;;;;;;18.00;6.25;;;;;;;1.75;74.08;103137.69;5066786;28;20145;-73
2021/04/13 04:26:56;;;;;;;12.07;6.20;;;;;;;1.77;74.04;103138.50;5047719;28;20113;-74
2021/04/13 04:29:28;;;;;;;15.77;6.68;;;;;;;1.79;73.84;103147.09;5065596;28;20056;-73
2021/04/13 04:31:56;;;;;;;13.85;6.43;;;;;;;1.75;73.23;103146.31;5075535;28;20120;-74
2021/04/13 04:34:22;;;;;;;15.70;6.20;;;;;;;1.75;72.89;103153.22;5063618;28;20653;-74
2021/04/13 04:36:53;;;;;;;13.82;6.40;;;;;;;1.71;73.68;103157.59;5066432;28;20134;-73
2021/04/13 04:39:35;;;;;;;16.38;6.35;;;;;;;1.63;73.79;103156.03;5057256;28;20052;-73
2021/04/13 04:42:29;;;;;;;13.23;6.45;;;;;;;1.64;74.37;103160.34;5053299;28;20467;-73
2021/04/13 04:45:12;;;;;;;16.52;6.55;;;;;;;1.65;74.28;103159.47;5078853;28;20717;-74
2021/04/13 04:47:38;;;;;;;22.38;7.38;;;;;;;1.64;73.65;103168.09;5064006;28;20048;-75
2021/04/13 04:50:08;;;;;;;18.17;6.65;;;;;;;1.61;73.67;103160.38;5078836;28;20048;-75
2021/04/13 04:52:34;;;;;;;12.57;6.47;;;;;;;1.64;73.61;103161.19;5094597;28;20059;-75
2021/04/13 04:55:00;;;;;;;19.70;7.43;;;;;;;1.58;73.48;103156.97;5081474;28;20051;-75
2021/04/13 04:57:27;;;;;;;21.33;7.13;;;;;;;1.59;72.78;103173.38;5093978;28;20541;-76
2021/04/13 04:59:54;;;;;;;15.90;7.45;;;;;;;1.53;73.13;103176.94;5098296;28;20506;-75
2021/04/13 05:02:20;;;;;;;13.02;6.47;;;;;;;1.50;73.06;103184.75;5074325;28;20068;-75
2021/04/13 05:04:47;;;;;;;20.83;6.97;;;;;;;1.41;72.87;103177.16;5080388;28;20489;-75
2021/04/13 05:07:13;;;;;;;17.33;7.15;;;;;;;1.41;73.68;103184.06;5069515;28;20051;-76
2021/04/13 05:09:39;;;;;;;16.88;7.88;;;;;;;1.33;74.58;103186.78;5080074;28;20089;-75
2021/04/13 05:12:06;;;;;;;21.05;7.50;;;;;;;1.36;74.59;103179.84;5065279;28;20054;-75
2021/04/13 05:14:32;;;;;;;22.45;8.35;;;;;;;1.35;74.48;103185.91;5085446;28;20541;-75
2021/04/13 05:16:59;;;;;;;12.25;6.60;;;;;;;1.41;73.72;103186.66;5067997;28;20121;-73
2021/04/13 05:19:26;;;;;;;17.17;7.10;;;;;;;1.43;74.23;103197.81;5059225;28;20066;-74
2021/04/13 05:21:52;;;;;;;10.18;6.63;;;;;;;1.45;74.12;103190.88;5061909;28;20116;-73
2021/04/13 05:24:18;;;;;;;20.73;7.28;;;;;;;1.49;74.53;103195.13;5054632;28;20524;-73
2021/04/13 05:26:44;;;;;;;22.73;6.88;;;;;;;1.50;74.69;103191.66;5084614;28;20090;-72
2021/04/13 05:29:10;;;;;;;17.65;7.72;;;;;;;1.50;74.85;103200.25;5079470;28;20058;-72
2021/04/13 05:31:40;;;;;;;21.33;9.23;;;;;;;1.54;74.83;103196.72;5097065;28;20055;-73
2021/04/13 05:34:09;;;;;;;18.42;9.10;;;;;;;1.55;74.56;103202.78;5048684;28;20048;-75
2021/04/13 05:36:36;;;;;;;;;;;;;;;1.56;74.84;103212.22;5075929;28;20898;-73
2021/04/13 05:39:04;;;;;;;24.88;9.60;;;;;;;1.57;75.15;103213.94;5088732;28;19923;-73
2021/04/13 05:41:30;;;;;;;14.18;7.88;;;;;;;1.54;75.09;103214.00;5075702;28;20062;-73
2021/04/13 05:43:56;;;;;;;18.33;8.32;;;;;;;1.56;75.19;103213.06;5083580;28;20109;-73
2021/04/13 05:46:26;;;;;;;16.08;7.50;;;;;;;1.56;75.12;103214.81;5077328;28;20055;-74
2021/04/13 05:48:52;;;;;;;16.73;7.95;;;;;;;1.61;75.31;103225.94;5060932;28;20063;-73
2021/04/13 05:51:19;;;;;;;15.57;8.15;;;;;;;1.61;75.28;103225.06;5066577;28;20060;-72
2021/04/13 05:53:45;;;;;;;21.90;8.10;;;;;;;1.64;75.60;103230.19;5046436;28;20056;-73
2021/04/13 05:56:24;;;;;;;27.80;8.50;;;;;;;1.66;75.25;103228.44;5075510;28;20487;-72
2021/04/13 05:58:51;;;;;;;23.60;7.57;;;;;;;1.73;74.82;103233.47;5083977;28;20871;-76
2021/04/13 06:01:20;;;;;;;21.17;8.15;;;;;;;1.74;75.21;103232.56;5072154;28;20052;-73
2021/04/13 06:03:46;;;;;;;;;;;;;;;1.77;75.45;103240.28;5073491;28;20048;-73
2021/04/13 06:06:16;;;;;;;18.67;8.02;;;;;;;1.76;75.44;103238.59;5079311;28;19924;-72
2021/04/13 06:08:42;;;;;;;22.80;8.07;;;;;;;1.81;75.74;103246.25;5082290;28;20090;-73
2021/04/13 06:11:14;;;;;;;18.85;8.05;;;;;;;1.89;74.72;103244.38;5074103;28;20056;-73
2021/04/13 06:13:40;;;;;;;23.20;8.38;;;;;;;1.89;75.14;103248.69;5063349;28;20083;-72
2021/04/13 06:16:09;;;;;;;22.58;7.60;;;;;;;1.95;75.07;103248.56;5057855;28;20058;-74
2021/04/13 06:18:34;;;;;;;21.55;8.07;;;;;;;2.03;75.07;103251.00;5070203;28;20051;-74
2021/04/13 06:21:01;;;;;;;17.15;7.75;;;;;;;2.09;74.54;103251.72;5087865;28;20154;-73
2021/04/13 06:23:27;;;;;;;19.10;7.07;;;;;;;2.13;74.80;103252.50;5083105;28;20055;-74
2021/04/13 06:25:53;;;;;;;18.45;8.07;;;;;;;2.18;74.46;103258.47;5083970;28;20051;-73
2021/04/13 06:28:19;;;;;;;17.85;7.70;;;;;;;2.26;74.60;103261.72;5077132;28;20566;-73
2021/04/13 06:30:45;;;;;;;18.58;7.25;;;;;;;2.24;74.48;103260.91;5080464;28;20113;-73
2021/04/13 06:33:11;;;;;;;16.65;7.20;;;;;;;2.31;74.46;103270.28;5054339;28;20090;-73
2021/04/13 06:35:37;;;;;;;20.45;7.78;;;;;;;2.34;74.05;103272.78;5083337;28;20550;-73
2021/04/13 06:38:12;;;;;;;23.48;8.05;;;;;;;2.47;74.09;103278.56;5073423;28;20049;-73
2021/04/13 06:40:51;;;;;;;25.60;7.88;;;;;;;2.53;74.00;103280.16;5068268;28;20052;-73
2021/04/13 06:43:23;;;;;;;20.58;7.75;;;;;;;2.61;73.88;103288.63;5077471;28;20051;-73
2021/04/13 06:46:08;;;;;;;21.38;8.13;;;;;;;2.68;73.92;103284.97;5085045;28;20052;-73
2021/04/13 06:48:59;;;;;;;17.67;7.10;;;;;;;2.76;74.00;103296.06;5078481;28;20044;-73
2021/04/13 06:51:59;;;;;;;17.67;6.78;;;;;;;2.84;73.93;103289.81;5064946;28;20086;-73
2021/04/13 06:54:56;;;;;;;28.60;8.10;;;;;;;2.91;73.04;103302.59;5082248;28;20056;-73
2021/04/13 06:57:59;;;;;;;21.60;7.03;;;;;;;3.00;73.38;103293.78;5071998;28;20052;-72
2021/04/13 07:00:48;;;;;;;22.15;6.97;;;;;;;3.03;72.94;103293.69;5070731;28;20113;-72
2021/04/13 07:03:31;;;;;;;20.25;5.93;;;;;;;3.14;72.89;103302.06;5069043;28;20141;-73
2021/04/13 07:06:38;;;;;;;21.17;5.65;;;;;;;3.22;72.09;103312.25;5078573;28;20060;-72
2021/04/13 07:09:28;;;;;;;17.42;5.90;;;;;;;3.32;71.67;103302.50;5065819;28;20063;-72
2021/04/13 07:12:06;;;;;;;16.95;5.10;;;;;;;3.39;72.03;103301.44;5076225;28;20120;-73
2021/04/13 07:14:50;;;;;;;14.88;5.32;;;;;;;3.45;71.50;103306.50;5088337;28;20056;-73
2021/04/13 07:17:34;;;;;;;22.20;5.22;;;;;;;3.55;71.11;103309.72;5077215;28;20047;-72
2021/04/13 07:20:09;;;;;;;15.02;5.05;;;;;;;3.61;71.06;103311.28;5063875;28;20079;-73
2021/04/13 07:22:53;;;;;;;13.38;5.32;;;;;;;3.69;70.66;103314.53;5094970;28;20044;-73
2021/04/13 07:25:21;;;;;;;12.90;5.05;;;;;;;3.78;70.51;103323.81;5092809;28;20051;-71
2021/04/13 07:27:54;;;;;;;17.02;5.38;;;;;;;3.81;70.14;103322.00;5084757;28;20048;-71
2021/04/13 07:30:27;;;;;;;15.77;4.80;;;;;;;3.88;70.45;103320.94;5074727;28;20640;-72
2021/04/13 07:32:56;;;;;;;19.80;5.85;;;;;;;3.97;70.08;103317.22;5094773;28;20376;-72
2021/04/13 07:35:26;;;;;;;20.15;6.75;;;;;;;4.05;69.74;103312.66;5084627;28;20113;-71
2021/04/13 07:37:55;;;;;;;19.30;4.68;;;;;;;4.14;69.69;103311.56;5079923;28;20075;-72
2021/04/13 07:40:27;;;;;;;16.38;4.05;;;;;;;4.23;69.36;103313.06;5090406;28;20643;-72
2021/04/13 07:43:00;;;;;;;21.92;4.85;;;;;;;4.28;68.20;103316.38;5080135;28;20120;-72
2021/04/13 07:45:31;;;;;;;24.40;4.05;;;;;;;4.33;68.32;103306.69;5090203;28;20129;-72
2021/04/13 07:48:14;;;;;;;18.10;4.40;;;;;;;4.41;68.18;103309.94;5086175;28;20052;-72
2021/04/13 07:50:49;;;;;;;18.48;4.80;;;;;;;4.49;68.52;103315.75;5089756;28;20124;-72
2021/04/13 07:53:18;;;;;;;13.55;4.60;;;;;;;4.58;69.15;103309.41;5054407;28;20057;-72
2021/04/13 07:55:46;;;;;;;22.25;4.28;;;;;;;4.64;68.24;103308.38;5091474;28;20059;-72
2021/04/13 07:58:22;;;;;;;18.35;4.30;;;;;;;4.75;68.64;103312.34;5061470;28;20750;-72
2021/04/13 08:00:52;;;;;;;12.70;4.10;;;;;;;4.85;68.24;103310.31;5072851;28;20137;-72
2021/04/13 08:03:25;;;;;;;17.05;3.33;;;;;;;5.03;67.92;103302.84;5067021;28;20121;-72
2021/04/13 08:05:56;;;;;;;16.00;2.85;;;;;;;5.17;66.64;103308.44;5086467;28;20062;-72
2021/04/13 08:09:12;;;;;;;15.35;2.55;;;;;;;5.35;65.72;103306.97;5078060;28;20116;-74
2021/04/13 08:12:14;;;;;;;15.48;1.88;;;;;;;5.64;63.75;103299.91;5040015;28;20085;-72
2021/04/13 08:15:04;;;;;;;20.10;3.17;;;;;;;5.85;63.08;103293.97;5069375;28;20052;-72
2021/04/13 08:17:34;;;;;;;10.82;1.48;;;;;;;6.19;61.77;103302.34;5085254;28;20044;-71
2021/04/13 08:20:06;;;;;;;15.82;1.83;;;;;;;6.51;60.60;103299.38;5074646;28;20472;-72
2021/04/13 08:22:54;;;;;;;18.75;2.08;;;;;;;6.56;59.29;103303.53;5048895;28;20809;-72
2021/04/13 08:25:37;;;;;;;7.10;2.38;;;;;;;6.81;58.66;103317.31;5068575;28;20056;-71
2021/04/13 08:28:21;;;;;;;14.05;2.50;;;;;;;7.07;57.68;103305.84;5084436;28;20051;-71
2021/04/13 08:34:26;;;;;;;11.18;2.45;;;;;;;7.71;56.22;103311.88;5087517;28;20044;-72
2021/04/13 08:37:09;;;;;;;9.70;2.00;;;;;;;7.95;54.95;103302.09;5059119;28;20503;-72
2021/04/13 08:40:07;;;;;;;9.70;1.63;;;;;;;8.09;52.53;103304.09;5081364;28;20052;-72
2021/04/13 08:42:43;;;;;;;5.60;1.30;;;;;;;7.93;51.95;103303.94;5077722;28;20102;-72
2021/04/13 08:45:33;;;;;;;10.73;1.75;;;;;;;7.99;51.26;103305.44;5085463;28;20125;-72
2021/04/13 08:48:11;;;;;;;5.80;1.40;;;;;;;8.22;51.35;103307.03;5070792;28;20114;-73
2021/04/13 08:50:43;;;;;;;12.13;1.98;;;;;;;8.45;52.16;103306.00;5076625;28;20043;-73
2021/04/13 08:53:31;;;;;;;13.52;1.90;;;;;;;8.43;51.88;103307.84;5078591;28;20105;-73
2021/04/13 08:56:26;;;;;;;10.52;1.40;;;;;;;8.63;51.55;103312.13;5071856;28;20055;-73
2021/04/13 08:59:02;;;;;;;9.75;1.75;;;;;;;8.47;49.90;103319.84;5084559;28;20051;-73
2021/04/13 09:01:41;;;;;;;5.78;1.20;;;;;;;8.31;49.45;103323.13;5070738;28;20047;-73
2021/04/13 09:04:27;;;;;;;10.07;1.20;;;;;;;8.32;48.98;103316.13;5063307;28;20056;-73
2021/04/13 09:07:02;;;;;;;6.28;1.20;;;;;;;8.45;49.45;103311.22;5074596;28;20051;-73
2021/04/13 09:09:37;;;;;;;5.53;1.25;;;;;;;8.69;49.87;103307.44;5084692;28;20077;-73
2021/04/13 09:12:12;;;;;;;7.20;1.27;;;;;;;8.98;49.88;103310.44;5061460;28;20055;-73
2021/04/13 09:15:20;;;;;;;10.10;1.63;;;;;;;9.28;49.40;103313.28;5075797;28;20059;-73
2021/04/13 09:18:01;;;;;;;7.00;1.20;;;;;;;9.38;47.74;103308.44;5073031;28;20468;-73
2021/04/13 09:20:40;;;;;;;12.57;1.73;;;;;;;9.04;47.53;103307.50;5083303;28;20578;-73
2021/04/13 09:23:25;;;;;;;9.82;1.20;;;;;;;8.85;46.63;103310.16;5059909;28;20061;-73
2021/04/13 09:25:51;;;;;;;6.10;1.00;;;;;;;8.76;46.05;103312.38;5066234;28;20137;-73
2021/04/13 09:28:23;;;;;;;9.07;1.88;;;;;;;9.14;46.88;103312.31;5078040;28;20048;-73
2021/04/13 09:31:08;;;;;;;10.05;2.00;;;;;;;9.41;46.17;103310.03;5083578;28;20044;-73
2021/04/13 09:33:44;;;;;;;14.82;2.35;;;;;;;9.67;45.41;103301.72;5052678;28;20048;-73
2021/04/13 09:36:13;;;;;;;6.93;1.40;;;;;;;9.82;44.22;103299.19;5066138;28;20060;-73
2021/04/13 09:39:01;;;;;;;7.38;1.10;;;;;;;9.85;43.26;103301.66;5096538;28;20048;-73
2021/04/13 09:42:14;;;;;;;6.97;1.00;;;;;;;10.17;43.72;103294.69;5074107;28;20064;-73
2021/04/13 09:45:06;;;;;;;12.93;2.25;;;;;;;10.54;43.98;103302.38;5050039;28;20098;-73
2021/04/13 09:48:05;;;;;;;11.25;1.33;;;;;;;10.74;42.53;103303.88;5090058;28;20580;-73
2021/04/13 09:50:42;;;;;;;5.50;1.23;;;;;;;10.36;39.73;103304.22;5075008;28;20063;-74
2021/04/13 09:53:43;;;;;;;6.75;1.20;;;;;;;10.82;41.73;103312.16;5077169;28;20052;-73
2021/04/13 09:56:40;;;;;;;3.88;1.05;;;;;;;10.92;41.06;103301.97;5059537;28;20063;-73
2021/04/13 09:59:34;;;;;;;5.18;1.20;;;;;;;11.19;41.38;103304.78;5076754;28;20056;-73
2021/04/13 10:02:53;;;;;;;6.50;1.80;;;;;;;11.39;41.08;103285.22;5070926;28;20116;-73
2021/04/13 10:05:29;;;;;;;5.93;1.45;;;;;;;11.65;39.62;103296.81;5085603;28;20048;-73
2021/04/13 10:07:59;;;;;;;6.53;1.20;;;;;;;11.92;39.91;103288.19;5077465;28;20052;-73
2021/04/13 10:10:27;;;;;;;9.15;1.30;;;;;;;12.23;40.23;103287.97;5076674;28;20113;-73
2021/04/13 10:13:26;;;;;;;;;;;;;;;12.50;38.37;103281.88;5091927;28;20666;-73
2021/04/13 10:16:34;;;;;;;8.93;1.50;;;;;;;12.11;38.01;103283.47;5023380;28;20502;-73
2021/04/13 10:19:12;;;;;;;5.90;1.60;;;;;;;11.81;39.74;103289.66;5082785;28;20055;-73
2021/04/13 10:22:12;;;;;;;4.60;1.15;;;;;;;11.27;38.83;103289.41;5082736;28;20060;-73
2021/04/13 10:24:43;;;;;;;9.23;1.85;;;;;;;11.52;38.76;103285.31;5058026;28;20055;-73
2021/04/13 10:27:36;;;;;;;8.70;1.45;;;;;;;11.62;38.43;103282.06;5077181;28;20105;-73
2021/04/13 10:30:43;;;;;;;4.38;1.10;;;;;;;11.85;37.73;103277.16;5076747;28;20047;-73
2021/04/13 10:33:46;;;;;;;3.47;1.00;;;;;;;12.27;37.66;103278.94;5069022;28;20073;-73
2021/04/13 10:36:26;;;;;;;6.85;1.08;;;;;;;12.14;36.92;103266.66;5065898;28;20102;-73
2021/04/13 10:39:07;;;;;;;7.60;1.55;;;;;;;12.11;37.67;103274.72;5078111;28;20117;-73
2021/04/13 10:42:00;;;;;;;5.90;1.20;;;;;;;12.40;34.62;103265.81;5081720;28;20093;-73
2021/04/13 10:45:01;;;;;;;4.35;1.35;;;;;;;12.41;34.81;103264.06;5067594;28;20470;-73
2021/04/13 10:47:39;;;;;;;5.13;1.20;;;;;;;12.39;34.55;103260.69;5063971;28;20548;-73
2021/04/13 10:50:31;;;;;;;5.40;2.90;;;;;;;12.48;35.07;103267.97;5062069;28;20593;-73
2021/04/13 10:53:18;;;;;;;4.28;1.00;;;;;;;12.87;35.16;103258.41;5057186;28;20052;-73
2021/04/13 10:56:05;;;;;;;10.93;1.42;;;;;;;13.11;34.61;103260.34;5069258;28;20131;-73
2021/04/13 10:59:01;;;;;;;5.35;1.40;;;;;;;13.09;34.42;103264.88;5082229;28;20052;-73
2021/04/13 11:01:58;;;;;;;4.90;1.27;;;;;;;12.68;34.08;103266.66;5058296;28;20055;-73
2021/04/13 11:05:08;;;;;;;4.68;1.00;;;;;;;12.09;33.04;103263.47;5059129;28;20048;-73
2021/04/13 11:08:02;;;;;;;4.45;1.00;;;;;;;11.95;34.69;103254.63;5070783;28;20488;-73
2021/04/13 11:10:44;;;;;;;5.20;1.60;;;;;;;11.70;36.10;103255.28;5080292;28;20433;-73
2021/04/13 11:13:51;;;;;;;3.42;1.20;;;;;;;11.30;35.17;103247.19;5078176;28;20423;-73
2021/04/13 11:16:45;;;;;;;4.35;1.38;;;;;;;11.88;35.50;103242.81;5061096;28;20082;-73
2021/04/13 11:19:18;;;;;;;4.72;1.17;;;;;;;12.39;35.15;103242.25;5096522;28;20079;-73
2021/04/13 11:22:12;;;;;;;8.70;1.50;;;;;;;12.84;35.52;103246.28;5091063;28;20056;-73
2021/04/13 11:24:56;;;;;;;3.33;1.33;;;;;;;13.12;35.17;103233.88;5083352;28;20117;-73
2021/04/13 11:27:59;;;;;;;4.60;1.45;;;;;;;12.97;33.38;103241.03;5081858;28;20443;-73
2021/04/13 11:31:07;;;;;;;5.43;1.20;;;;;;;13.05;31.52;103229.97;5054445;28;20097;-73
2021/04/13 11:34:04;;;;;;;2.85;1.08;;;;;;;13.39;33.34;103231.19;5044994;28;20047;-73
2021/04/13 11:36:52;;;;;;;2.78;1.05;;;;;;;13.43;30.38;103221.28;5067578;28;20098;-73
2021/04/13 11:39:38;;;;;;;6.65;1.30;;;;;;;14.09;32.13;103207.84;5078382;28;20051;-73
2021/04/13 11:42:14;;;;;;;5.57;1.45;;;;;;;14.20;31.07;103213.19;5077895;28;20596;-73
2021/04/13 11:44:49;;;;;;;11.68;1.55;;;;;;;14.60;32.53;103211.13;5076109;28;20640;-73
2021/04/13 11:47:32;;;;;;;3.58;1.30;;;;;;;14.85;30.76;103221.63;5066804;28;20163;-73
2021/04/13 11:50:07;;;;;;;3.85;1.10;;;;;;;14.85;30.78;103217.19;5084051;28;20742;-73
2021/04/13 11:52:33;;;;;;;5.60;1.15;;;;;;;15.18;32.00;103213.75;5064392;28;20055;-74
2021/04/13 11:55:00;;;;;;;3.47;1.10;;;;;;;15.07;30.24;103212.91;5086056;28;20062;-74
2021/04/13 11:57:51;;;;;;;2.80;1.10;;;;;;;14.56;30.22;103220.22;5075882;28;20047;-74
2021/04/13 12:00:20;;;;;;;4.93;1.33;;;;;;;14.11;31.55;103214.69;5084494;28;20055;-74
2021/04/13 12:02:47;;;;;;;;;;;;;;;13.77;31.68;103221.53;5090224;28;20056;-72
2021/04/13 12:05:27;;;;;;;3.50;0.95;;;;;;;13.38;30.96;103218.94;5080423;28;19924;-74
2021/04/13 12:07:53;;;;;;;9.38;1.70;;;;;;;13.17;32.78;103208.06;5080874;28;20056;-74
2021/04/13 12:10:32;;;;;;;4.25;1.20;;;;;;;12.82;32.52;103207.84;5096367;28;20051;-72
2021/04/13 12:12:58;;;;;;;;;;;;;;;12.64;31.87;103209.88;5087432;28;20055;-72
2021/04/13 12:15:24;;;;;;;3.60;1.30;;;;;;;12.40;32.21;103212.34;5091323;28;19940;-74
2021/04/13 12:17:59;;;;;;;4.18;1.23;;;;;;;11.96;29.87;103210.78;5097752;28;20052;-74
2021/04/13 12:23:06;;;;;;;5.28;1.00;;;;;;;12.26;31.79;103202.72;5084862;28;20048;-74
2021/04/13 12:26:08;;;;;;;3.47;0.93;;;;;;;12.94;32.49;103199.09;5074386;28;20055;-74